sensor_id;sensor_type;location;lat;lon;timestamp;pressure;altitude;pressure_sealevel;temperature;humidity
39793;BME280;26080;42.264;24.536;2023-01-25T00:00:45;100719.81;;;1.69;100.00
39793;BME280;26080;42.264;24.536;2023-01-25T00:03:10;100763.06;;;1.86;100.00
39793;BME280;26080;42.264;24.536;2023-01-25T00:05:36;100762.13;;;1.79;100.00
39793;BME280;26080;42.264;24.536;2023-01-25T00:08:01;100757.72;;;1.72;100.00
39793;BME280;26080;42.264;24.536;2023-01-25T00:10:27;100763.75;;;1.71;100.00
39793;BME280;26080;42.264;24.536;2023-01-25T00:12:54;100707.50;;;1.48;100.00
39793;BME280;26080;42.264;24.536;2023-01-25T00:15:20;100758.56;;;1.71;100.00
39793;BME280;26080;42.264;24.536;2023-01-25T00:17:45;100759.41;;;1.68;100.00
39793;BME280;26080;42.264;24.536;2023-01-25T00:20:11;100746.25;;;1.48;100.00
39793;BME280;26080;42.264;24.536;2023-01-25T00:22:36;100762.75;;;1.60;100.00
39793;BME280;26080;42.264;24.536;2023-01-25T00:25:05;100761.84;;;1.55;100.00
39793;BME280;26080;42.264;24.536;2023-01-25T00:27:30;100752.25;;;1.47;100.00
39793;BME280;26080;42.264;24.536;2023-01-25T00:29:56;100762.75;;;1.60;100.00
39793;BME280;26080;42.264;24.536;2023-01-25T00:34:51;100763.63;;;1.62;100.00
39793;BME280;26080;42.264;24.536;2023-01-25T00:39:42;100749.69;;;1.51;100.00
39793;BME280;26080;42.264;24.536;2023-01-25T00:42:11;100763.63;;;1.62;100.00
39793;BME280;26080;42.264;24.536;2023-01-25T00:44:38;100740.22;;;1.48;100.00
39793;BME280;26080;42.264;24.536;2023-01-25T00:47:03;100769.63;;;1.59;100.00
39793;BME280;26080;42.264;24.536;2023-01-25T00:49:29;100769.66;;;1.62;100.00
39793;BME280;26080;42.264;24.536;2023-01-25T00:51:56;100746.34;;;1.55;100.00
39793;BME280;26080;42.264;24.536;2023-01-25T00:54:22;100766.31;;;1.71;100.00
39793;BME280;26080;42.264;24.536;2023-01-25T00:56:48;100768.88;;;1.68;100.00
39793;BME280;26080;42.264;24.536;2023-01-25T00:59:16;100775.84;;;1.75;100.00
39793;BME280;26080;42.264;24.536;2023-01-25T01:01:42;100767.34;;;1.84;100.00
39793;BME280;26080;42.264;24.536;2023-01-25T01:04:08;100771.66;;;1.86;100.00
39793;BME280;26080;42.264;24.536;2023-01-25T01:06:37;100765.53;;;1.78;100.00
39793;BME280;26080;42.264;24.536;2023-01-25T01:09:04;100746.53;;;1.73;100.00
39793;BME280;26080;42.264;24.536;2023-01-25T01:11:30;100774.28;;;1.89;100.00
39793;BME280;26080;42.264;24.536;2023-01-25T01:13:56;100769.91;;;1.82;100.00
39793;BME280;26080;42.264;24.536;2023-01-25T01:16:22;100764.88;;;1.93;100.00
39793;BME280;26080;42.264;24.536;2023-01-25T01:18:48;100755.44;;;1.99;100.00
39793;BME280;26080;42.264;24.536;2023-01-25T01:21:13;100753.63;;;1.91;100.00
39793;BME280;26080;42.264;24.536;2023-01-25T01:23:39;100722.31;;;1.62;100.00
39793;BME280;26080;42.264;24.536;2023-01-25T01:26:09;100707.59;;;1.55;100.00
39793;BME280;26080;42.264;24.536;2023-01-25T01:28:35;100749.28;;;1.88;100.00
39793;BME280;26080;42.264;24.536;2023-01-25T01:31:07;100749.28;;;1.87;100.00
39793;BME280;26080;42.264;24.536;2023-01-25T01:33:32;100744.06;;;1.82;100.00
39793;BME280;26080;42.264;24.536;2023-01-25T01:35:58;100722.41;;;1.71;100.00
39793;BME280;26080;42.264;24.536;2023-01-25T01:38:24;100741.47;;;1.79;100.00
39793;BME280;26080;42.264;24.536;2023-01-25T01:40:50;100742.22;;;1.70;100.00
39793;BME280;26080;42.264;24.536;2023-01-25T01:43:21;100746.50;;;1.68;100.00
39793;BME280;26080;42.264;24.536;2023-01-25T01:54:20;100736.97;;;1.64;100.00
39793;BME280;26080;42.264;24.536;2023-01-25T01:56:49;100746.41;;;1.61;100.00
39793;BME280;26080;42.264;24.536;2023-01-25T01:59:18;100727.47;;;1.62;100.00
39793;BME280;26080;42.264;24.536;2023-01-25T02:01:44;100747.38;;;1.70;100.00
39793;BME280;26080;42.264;24.536;2023-01-25T02:04:11;100703.22;;;1.49;100.00
39793;BME280;26080;42.264;24.536;2023-01-25T02:06:47;100741.31;;;1.67;100.00
39793;BME280;26080;42.264;24.536;2023-01-25T02:09:20;100742.03;;;1.54;100.00
39793;BME280;26080;42.264;24.536;2023-01-25T02:11:50;100734.22;;;1.51;100.00
39793;BME280;26080;42.264;24.536;2023-01-25T02:14:16;100741.09;;;1.50;100.00
39793;BME280;26080;42.264;24.536;2023-01-25T02:16:43;100729.88;;;1.48;100.00
39793;BME280;26080;42.264;24.536;2023-01-25T02:19:12;100716.03;;;1.38;100.00
39793;BME280;26080;42.264;24.536;2023-01-25T02:21:43;100730.69;;;1.42;100.00
39793;BME280;26080;42.264;24.536;2023-01-25T02:24:21;100740.16;;;1.43;100.00
39793;BME280;26080;42.264;24.536;2023-01-25T02:26:48;100728.06;;;1.39;100.00
39793;BME280;26080;42.264;24.536;2023-01-25T02:29:14;100701.94;;;1.15;100.00
39793;BME280;26080;42.264;24.536;2023-01-25T02:31:43;100717.44;;;1.15;100.00
39793;BME280;26080;42.264;24.536;2023-01-25T02:34:09;100712.16;;;1.09;100.00
39793;BME280;26080;42.264;24.536;2023-01-25T02:36:35;100734.69;;;1.19;100.00
39793;BME280;26080;42.264;24.536;2023-01-25T02:41:39;100732.13;;;1.22;100.00
39793;BME280;26080;42.264;24.536;2023-01-25T02:44:09;100705.28;;;1.08;100.00
39793;BME280;26080;42.264;24.536;2023-01-25T02:46:37;100734.69;;;1.21;100.00
39793;BME280;26080;42.264;24.536;2023-01-25T02:49:04;100727.78;;;1.18;100.00
39793;BME280;26080;42.264;24.536;2023-01-25T02:51:33;100721.59;;;1.07;100.00
39793;BME280;26080;42.264;24.536;2023-01-25T02:54:00;100724.97;;;1.00;100.00
39793;BME280;26080;42.264;24.536;2023-01-25T02:56:26;100728.41;;;0.99;100.00
39793;BME280;26080;42.264;24.536;2023-01-25T02:58:52;100717.06;;;0.89;100.00
39793;BME280;26080;42.264;24.536;2023-01-25T03:01:17;100705.81;;;0.82;100.00
39793;BME280;26080;42.264;24.536;2023-01-25T03:03:43;100720.53;;;0.91;100.00
39793;BME280;26080;42.264;24.536;2023-01-25T03:06:08;100720.63;;;0.97;100.00
39793;BME280;26080;42.264;24.536;2023-01-25T03:08:34;100725.84;;;1.00;100.00
39793;BME280;26080;42.264;24.536;2023-01-25T03:11:01;100725.00;;;1.03;100.00
39793;BME280;26080;42.264;24.536;2023-01-25T03:13:27;100716.38;;;1.01;100.00
39793;BME280;26080;42.264;24.536;2023-01-25T03:15:59;100720.72;;;1.05;100.00
39793;BME280;26080;42.264;24.536;2023-01-25T03:18:25;100726.69;;;0.99;100.00
39793;BME280;26080;42.264;24.536;2023-01-25T03:20:50;100721.56;;;1.04;100.00
39793;BME280;26080;42.264;24.536;2023-01-25T03:23:16;100722.34;;;0.97;100.00
39793;BME280;26080;42.264;24.536;2023-01-25T03:25:41;100720.56;;;0.94;100.00
39793;BME280;26080;42.264;24.536;2023-01-25T03:28:07;100700.59;;;0.81;100.00
39793;BME280;26080;42.264;24.536;2023-01-25T03:30:32;100712.81;;;0.93;100.00
39793;BME280;26080;42.264;24.536;2023-01-25T03:32:58;100722.38;;;1.00;100.00
39793;BME280;26080;42.264;24.536;2023-01-25T03:35:24;100699.69;;;0.77;100.00
39793;BME280;26080;42.264;24.536;2023-01-25T03:37:49;100723.06;;;0.86;100.00
39793;BME280;26080;42.264;24.536;2023-01-25T03:40:15;100715.22;;;0.80;100.00
39793;BME280;26080;42.264;24.536;2023-01-25T03:42:40;100723.78;;;0.79;100.00
39793;BME280;26080;42.264;24.536;2023-01-25T03:45:06;100719.47;;;0.78;100.00
39793;BME280;26080;42.264;24.536;2023-01-25T03:47:31;100723.75;;;0.76;100.00
39793;BME280;26080;42.264;24.536;2023-01-25T03:49:57;100727.97;;;0.70;100.00
39793;BME280;26080;42.264;24.536;2023-01-25T03:52:27;100721.03;;;0.67;100.00
39793;BME280;26080;42.264;24.536;2023-01-25T03:54:58;100720.94;;;0.61;100.00
39793;BME280;26080;42.264;24.536;2023-01-25T03:57:23;100727.03;;;0.66;100.00
39793;BME280;26080;42.264;24.536;2023-01-25T03:59:49;100716.41;;;0.46;100.00
39793;BME280;26080;42.264;24.536;2023-01-25T04:02:15;100702.53;;;0.38;100.00
39793;BME280;26080;42.264;24.536;2023-01-25T04:04:40;100730.41;;;0.61;100.00
39793;BME280;26080;42.264;24.536;2023-01-25T04:07:06;100724.44;;;0.65;100.00
39793;BME280;26080;42.264;24.536;2023-01-25T04:09:31;100727.84;;;0.64;100.00
39793;BME280;26080;42.264;24.536;2023-01-25T04:11:57;100711.47;;;0.58;100.00
39793;BME280;26080;42.264;24.536;2023-01-25T04:14:22;100717.59;;;0.68;100.00
39793;BME280;26080;42.264;24.536;2023-01-25T04:16:47;100718.50;;;0.69;100.00
39793;BME280;26080;42.264;24.536;2023-01-25T04:19:13;100722.84;;;0.73;100.00
39793;BME280;26080;42.264;24.536;2023-01-25T04:21:39;100720.31;;;0.76;100.00
39793;BME280;26080;42.264;24.536;2023-01-25T04:24:04;100719.41;;;0.72;100.00
39793;BME280;26080;42.264;24.536;2023-01-25T04:26:30;100734.88;;;0.72;100.00
39793;BME280;26080;42.264;24.536;2023-01-25T04:28:55;100722.88;;;0.74;100.00
39793;BME280;26080;42.264;24.536;2023-01-25T04:31:21;100725.44;;;0.73;100.00
39793;BME280;26080;42.264;24.536;2023-01-25T04:33:46;100730.44;;;0.65;100.00
39793;BME280;26080;42.264;24.536;2023-01-25T04:36:12;100734.72;;;0.63;100.00
39793;BME280;26080;42.264;24.536;2023-01-25T04:38:38;100733.06;;;0.68;100.00
39793;BME280;26080;42.264;24.536;2023-01-25T04:41:03;100724.44;;;0.66;100.00
39793;BME280;26080;42.264;24.536;2023-01-25T04:43:29;100733.06;;;0.68;100.00
39793;BME280;26080;42.264;24.536;2023-01-25T04:45:54;100734.00;;;0.72;100.00
39793;BME280;26080;42.264;24.536;2023-01-25T04:48:20;100708.00;;;0.58;100.00
39793;BME280;26080;42.264;24.536;2023-01-25T04:50:46;100729.72;;;0.72;100.00
39793;BME280;26080;42.264;24.536;2023-01-25T04:53:11;100728.97;;;0.81;100.00
39793;BME280;26080;42.264;24.536;2023-01-25T04:55:37;100733.25;;;0.80;100.00
39793;BME280;26080;42.264;24.536;2023-01-25T04:58:03;100731.53;;;0.79;100.00
39793;BME280;26080;42.264;24.536;2023-01-25T05:00:29;100716.88;;;0.75;100.00
39793;BME280;26080;42.264;24.536;2023-01-25T05:02:55;100730.75;;;0.83;100.00
39793;BME280;26080;42.264;24.536;2023-01-25T05:05:21;100724.75;;;0.84;100.00
39793;BME280;26080;42.264;24.536;2023-01-25T05:07:46;100741.06;;;0.83;100.00
39793;BME280;26080;42.264;24.536;2023-01-25T05:10:12;100733.22;;;0.77;100.00
39793;BME280;26080;42.264;24.536;2023-01-25T05:12:37;100734.03;;;0.73;100.00
39793;BME280;26080;42.264;24.536;2023-01-25T05:15:03;100747.06;;;0.82;100.00
39793;BME280;26080;42.264;24.536;2023-01-25T05:17:29;100746.09;;;0.76;100.00
39793;BME280;26080;42.264;24.536;2023-01-25T05:19:55;100756.56;;;0.85;100.00
39793;BME280;26080;42.264;24.536;2023-01-25T05:22:20;100749.69;;;0.84;100.00
39793;BME280;26080;42.264;24.536;2023-01-25T05:24:46;100754.09;;;0.93;100.00
39793;BME280;26080;42.264;24.536;2023-01-25T05:27:17;100747.06;;;0.82;100.00
39793;BME280;26080;42.264;24.536;2023-01-25T05:29:43;100753.13;;;0.86;100.00
39793;BME280;26080;42.264;24.536;2023-01-25T05:32:14;100746.97;;;0.76;100.00
39793;BME280;26080;42.264;24.536;2023-01-25T05:34:40;100749.69;;;0.85;100.00
39793;BME280;26080;42.264;24.536;2023-01-25T05:37:07;100747.19;;;0.92;100.00
39793;BME280;26080;42.264;24.536;2023-01-25T05:39:33;100729.78;;;0.78;100.00
39793;BME280;26080;42.264;24.536;2023-01-25T05:41:59;100731.50;;;0.76;100.00
39793;BME280;26080;42.264;24.536;2023-01-25T05:44:25;100753.13;;;0.84;100.00
39793;BME280;26080;42.264;24.536;2023-01-25T05:46:50;100724.63;;;0.77;100.00
39793;BME280;26080;42.264;24.536;2023-01-25T05:49:17;100766.28;;;1.03;100.00
39793;BME280;26080;42.264;24.536;2023-01-25T05:51:43;100764.59;;;1.05;100.00
39793;BME280;26080;42.264;24.536;2023-01-25T05:54:12;100761.81;;;0.91;100.00
39793;BME280;26080;42.264;24.536;2023-01-25T05:56:38;100755.69;;;0.84;100.00
39793;BME280;26080;42.264;24.536;2023-01-25T05:59:03;100762.84;;;1.04;100.00
39793;BME280;26080;42.264;24.536;2023-01-25T06:01:29;100762.81;;;1.01;100.00
39793;BME280;26080;42.264;24.536;2023-01-25T06:03:55;100736.88;;;0.92;100.00
39793;BME280;26080;42.264;24.536;2023-01-25T06:06:20;100751.63;;;1.00;100.00
39793;BME280;26080;42.264;24.536;2023-01-25T06:08:46;100761.16;;;1.06;100.00
39793;BME280;26080;42.264;24.536;2023-01-25T06:11:14;100764.72;;;1.12;100.00
39793;BME280;26080;42.264;24.536;2023-01-25T06:13:41;100770.78;;;1.16;100.00
39793;BME280;26080;42.264;24.536;2023-01-25T06:16:07;100764.81;;;1.20;100.00
39793;BME280;26080;42.264;24.536;2023-01-25T06:18:33;100770.09;;;1.29;100.00
39793;BME280;26080;42.264;24.536;2023-01-25T06:21:00;100773.56;;;1.31;100.00
39793;BME280;26080;42.264;24.536;2023-01-25T06:23:26;100754.41;;;1.14;100.00
39793;BME280;26080;42.264;24.536;2023-01-25T06:25:56;100782.16;;;1.32;100.00
39793;BME280;26080;42.264;24.536;2023-01-25T06:28:22;100772.66;;;1.28;100.00
39793;BME280;26080;42.264;24.536;2023-01-25T06:30:47;100775.22;;;1.26;100.00
39793;BME280;26080;42.264;24.536;2023-01-25T06:33:13;100773.50;;;1.25;100.00
39793;BME280;26080;42.264;24.536;2023-01-25T06:35:38;100776.06;;;1.24;100.00
39793;BME280;26080;42.264;24.536;2023-01-25T06:38:05;100738.81;;;1.08;100.00
39793;BME280;26080;42.264;24.536;2023-01-25T06:40:31;100765.75;;;1.25;100.00
39793;BME280;26080;42.264;24.536;2023-01-25T06:43:16;100765.75;;;1.27;100.00
39793;BME280;26080;42.264;24.536;2023-01-25T06:45:42;100771.69;;;1.19;100.00
39793;BME280;26080;42.264;24.536;2023-01-25T06:48:07;100766.63;;;1.27;100.00
39793;BME280;26080;42.264;24.536;2023-01-25T06:50:33;100766.50;;;1.18;100.00
39793;BME280;26080;42.264;24.536;2023-01-25T06:52:58;100764.91;;;1.26;100.00
39793;BME280;26080;42.264;24.536;2023-01-25T06:55:24;100773.66;;;1.37;100.00
39793;BME280;26080;42.264;24.536;2023-01-25T06:57:49;100773.72;;;1.42;100.00
39793;BME280;26080;42.264;24.536;2023-01-25T07:00:16;100753.72;;;1.27;100.00
39793;BME280;26080;42.264;24.536;2023-01-25T07:02:41;100770.34;;;1.47;100.00
39793;BME280;26080;42.264;24.536;2023-01-25T07:05:07;100773.75;;;1.46;100.00
39793;BME280;26080;42.264;24.536;2023-01-25T07:07:36;100774.56;;;1.41;100.00
39793;BME280;26080;42.264;24.536;2023-01-25T07:10:02;100779.81;;;1.48;100.00
39793;BME280;26080;42.264;24.536;2023-01-25T07:12:28;100781.53;;;1.49;100.00
39793;BME280;26080;42.264;24.536;2023-01-25T07:14:54;100777.19;;;1.45;100.00
39793;BME280;26080;42.264;24.536;2023-01-25T07:17:20;100774.53;;;1.39;100.00
39793;BME280;26080;42.264;24.536;2023-01-25T07:19:52;100783.88;;;1.30;100.00
39793;BME280;26080;42.264;24.536;2023-01-25T07:22:17;100764.75;;;1.15;100.00
39793;BME280;26080;42.264;24.536;2023-01-25T07:24:43;100781.50;;;1.45;100.00
39793;BME280;26080;42.264;24.536;2023-01-25T07:27:14;100766.00;;;1.46;100.00
39793;BME280;26080;42.264;24.536;2023-01-25T07:29:40;100780.00;;;1.64;100.00
39793;BME280;26080;42.264;24.536;2023-01-25T07:32:06;100782.66;;;1.68;100.00
39793;BME280;26080;42.264;24.536;2023-01-25T07:34:31;100791.31;;;1.72;100.00
39793;BME280;26080;42.264;24.536;2023-01-25T07:36:57;100789.44;;;1.62;100.00
39793;BME280;26080;42.264;24.536;2023-01-25T07:39:22;100784.44;;;1.74;100.00
39793;BME280;26080;42.264;24.536;2023-01-25T07:41:48;100783.53;;;1.69;100.00
39793;BME280;26080;42.264;24.536;2023-01-25T07:44:13;100780.97;;;1.72;100.00
39793;BME280;26080;42.264;24.536;2023-01-25T07:46:39;100796.50;;;1.75;100.00
39793;BME280;26080;42.264;24.536;2023-01-25T07:49:04;100795.63;;;1.74;100.00
39793;BME280;26080;42.264;24.536;2023-01-25T07:51:30;100796.41;;;1.66;100.00
39793;BME280;26080;42.264;24.536;2023-01-25T07:53:57;100796.41;;;1.66;100.00
39793;BME280;26080;42.264;24.536;2023-01-25T07:56:26;100801.56;;;1.66;100.00
39793;BME280;26080;42.264;24.536;2023-01-25T07:58:52;100799.75;;;1.60;100.00
39793;BME280;26080;42.264;24.536;2023-01-25T08:01:20;100801.50;;;1.63;100.00
39793;BME280;26080;42.264;24.536;2023-01-25T08:03:46;100772.03;;;1.45;100.00
39793;BME280;26080;42.264;24.536;2023-01-25T08:06:12;100795.47;;;1.62;100.00
39793;BME280;26080;42.264;24.536;2023-01-25T08:08:42;100803.31;;;1.67;100.00
39793;BME280;26080;42.264;24.536;2023-01-25T08:11:16;100796.56;;;1.80;100.00
39793;BME280;26080;42.264;24.536;2023-01-25T08:13:46;100792.22;;;1.77;100.00
39793;BME280;26080;42.264;24.536;2023-01-25T08:16:16;100790.47;;;1.74;100.00
39793;BME280;26080;42.264;24.536;2023-01-25T08:18:42;100805.25;;;1.88;100.00
39793;BME280;26080;42.264;24.536;2023-01-25T08:21:08;100768.06;;;1.73;100.00
39793;BME280;26080;42.264;24.536;2023-01-25T08:23:34;100807.13;;;1.99;100.00
39793;BME280;26080;42.264;24.536;2023-01-25T08:26:07;100765.59;;;1.83;100.00
39793;BME280;26080;42.264;24.536;2023-01-25T08:28:34;100801.13;;;2.03;100.00
39793;BME280;26080;42.264;24.536;2023-01-25T08:31:07;100795.94;;;2.00;100.00
39793;BME280;26080;42.264;24.536;2023-01-25T08:33:33;100810.69;;;2.07;100.00
39793;BME280;26080;42.264;24.536;2023-01-25T08:35:59;100805.41;;;2.00;100.00
39793;BME280;26080;42.264;24.536;2023-01-25T08:38:24;100803.66;;;1.97;100.00
39793;BME280;26080;42.264;24.536;2023-01-25T08:40:50;100812.28;;;1.99;100.00
39793;BME280;26080;42.264;24.536;2023-01-25T08:43:16;100811.28;;;1.88;100.00
39793;BME280;26080;42.264;24.536;2023-01-25T08:45:44;100818.22;;;1.91;100.00
39793;BME280;26080;42.264;24.536;2023-01-25T08:48:10;100808.00;;;2.00;100.00
39793;BME280;26080;42.264;24.536;2023-01-25T08:50:47;100808.88;;;2.00;100.00
39793;BME280;26080;42.264;24.536;2023-01-25T08:53:12;100806.25;;;1.97;100.00
39793;BME280;26080;42.264;24.536;2023-01-25T08:55:38;100796.78;;;1.99;100.00
39793;BME280;26080;42.264;24.536;2023-01-25T08:58:05;100790.72;;;1.94;100.00
39793;BME280;26080;42.264;24.536;2023-01-25T09:00:36;100796.75;;;1.96;100.00
39793;BME280;26080;42.264;24.536;2023-01-25T09:03:02;100793.34;;;2.00;100.00
39793;BME280;26080;42.264;24.536;2023-01-25T09:05:27;100785.59;;;1.99;100.00
39793;BME280;26080;42.264;24.536;2023-01-25T09:07:52;100796.06;;;2.13;100.00
39793;BME280;26080;42.264;24.536;2023-01-25T09:10:18;100784.88;;;2.14;100.00
39793;BME280;26080;42.264;24.536;2023-01-25T09:12:43;100790.03;;;2.11;100.00
39793;BME280;26080;42.264;24.536;2023-01-25T09:15:09;100784.69;;;1.95;100.00
39793;BME280;26080;42.264;24.536;2023-01-25T09:17:34;100785.63;;;2.02;100.00
39793;BME280;26080;42.264;24.536;2023-01-25T09:20:07;100786.59;;;2.12;100.00
39793;BME280;26080;42.264;24.536;2023-01-25T09:22:33;100752.13;;;2.10;100.00
39793;BME280;26080;42.264;24.536;2023-01-25T09:24:58;100767.03;;;2.35;100.00
39793;BME280;26080;42.264;24.536;2023-01-25T09:27:24;100778.25;;;2.38;100.00
39793;BME280;26080;42.264;24.536;2023-01-25T09:29:50;100773.09;;;2.42;100.00
39793;BME280;26080;42.264;24.536;2023-01-25T09:32:15;100768.78;;;2.42;100.00
39793;BME280;26080;42.264;24.536;2023-01-25T09:34:41;100766.28;;;2.48;100.00
39793;BME280;26080;42.264;24.536;2023-01-25T09:37:06;100739.47;;;2.38;100.00
39793;BME280;26080;42.264;24.536;2023-01-25T09:39:31;100745.59;;;2.48;100.00
39793;BME280;26080;42.264;24.536;2023-01-25T09:53:37;100736.16;;;2.59;100.00
39793;BME280;26080;42.264;24.536;2023-01-25T09:56:32;100730.22;;;2.66;100.00
39793;BME280;26080;42.264;24.536;2023-01-25T09:58:39;100721.50;;;2.55;100.00
39793;BME280;26080;42.264;24.536;2023-01-25T10:01:19;100678.22;;;2.33;100.00
39793;BME280;26080;42.264;24.536;2023-01-25T10:06:41;100723.25;;;2.59;100.00
39793;BME280;26080;42.264;24.536;2023-01-25T10:11:48;100699.03;;;2.48;100.00
39793;BME280;26080;42.264;24.536;2023-01-25T10:14:16;100707.72;;;2.59;100.00
39793;BME280;26080;42.264;24.536;2023-01-25T10:19:22;100697.34;;;2.53;100.00
39793;BME280;26080;42.264;24.536;2023-01-25T10:24:57;100692.25;;;2.64;100.00
39793;BME280;26080;42.264;24.536;2023-01-25T10:27:43;100678.38;;;2.56;100.00
39793;BME280;26080;42.264;24.536;2023-01-25T10:30:31;100692.19;;;2.56;100.00
39793;BME280;26080;42.264;24.536;2023-01-25T10:33:04;100686.06;;;2.44;100.00
39793;BME280;26080;42.264;24.536;2023-01-25T10:35:35;100677.50;;;2.52;100.00
39793;BME280;26080;42.264;24.536;2023-01-25T10:38:05;100680.09;;;2.52;100.00
39793;BME280;26080;42.264;24.536;2023-01-25T10:40:44;100654.16;;;2.40;100.00
39793;BME280;26080;42.264;24.536;2023-01-25T10:43:21;100666.38;;;2.62;100.00
39793;BME280;26080;42.264;24.536;2023-01-25T10:45:47;100666.41;;;2.68;100.00
39793;BME280;26080;42.264;24.536;2023-01-25T10:48:23;100641.34;;;2.58;100.00
39793;BME280;26080;42.264;24.536;2023-01-25T10:50:54;100653.56;;;2.84;100.00
39793;BME280;26080;42.264;24.536;2023-01-25T10:53:25;100658.75;;;2.85;100.00
39793;BME280;26080;42.264;24.536;2023-01-25T10:58:42;100637.06;;;2.63;100.00
39793;BME280;26080;42.264;24.536;2023-01-25T11:01:23;100657.84;;;2.79;100.00
39793;BME280;26080;42.264;24.536;2023-01-25T11:03:50;100653.53;;;2.76;100.00
39793;BME280;26080;42.264;24.536;2023-01-25T11:06:28;100626.66;;;2.57;100.00
39793;BME280;26080;42.264;24.536;2023-01-25T11:08:54;100646.72;;;2.89;100.00
39793;BME280;26080;42.264;24.536;2023-01-25T11:13:56;100635.56;;;3.02;100.00
39793;BME280;26080;42.264;24.536;2023-01-25T11:16:30;100629.53;;;3.03;100.00
39793;BME280;26080;42.264;24.536;2023-01-25T11:18:58;100626.94;;;3.09;100.00
39793;BME280;26080;42.264;24.536;2023-01-25T11:21:27;100616.59;;;3.14;100.00
39793;BME280;26080;42.264;24.536;2023-01-25T11:24:16;100613.13;;;3.09;100.00
39793;BME280;26080;42.264;24.536;2023-01-25T11:26:42;100609.69;;;3.10;100.00
39793;BME280;26080;42.264;24.536;2023-01-25T11:29:19;100603.66;;;3.14;100.00
39793;BME280;26080;42.264;24.536;2023-01-25T11:31:53;100605.34;;;3.01;100.00
39793;BME280;26080;42.264;24.536;2023-01-25T11:34:27;100602.72;;;2.89;100.00
39793;BME280;26080;42.264;24.536;2023-01-25T11:59:53;100581.91;;;2.67;100.00
39793;BME280;26080;42.264;24.536;2023-01-25T12:08:11;100566.50;;;2.92;100.00
39793;BME280;26080;42.264;24.536;2023-01-25T12:10:42;100563.00;;;2.81;100.00
39793;BME280;26080;42.264;24.536;2023-01-25T12:24:06;100541.38;;;2.65;100.00
39793;BME280;26080;42.264;24.536;2023-01-25T12:31:50;100549.13;;;2.66;100.00
39793;BME280;26080;42.264;24.536;2023-01-25T12:34:29;100543.97;;;2.73;100.00
39793;BME280;26080;42.264;24.536;2023-01-25T12:36:59;100512.06;;;2.61;100.00
39793;BME280;26080;42.264;24.536;2023-01-25T12:39:33;100517.22;;;2.64;100.00
39793;BME280;26080;42.264;24.536;2023-01-25T12:42:16;100538.81;;;2.70;100.00
39793;BME280;26080;42.264;24.536;2023-01-25T12:44:48;100537.94;;;2.72;100.00
39793;BME280;26080;42.264;24.536;2023-01-25T12:47:36;100539.72;;;2.76;100.00
39793;BME280;26080;42.264;24.536;2023-01-25T12:50:29;100537.06;;;2.72;100.00
39793;BME280;26080;42.264;24.536;2023-01-25T12:55:32;100515.38;;;2.41;100.00
39793;BME280;26080;42.264;24.536;2023-01-25T13:03:28;100528.31;;;2.42;100.00
39793;BME280;26080;42.264;24.536;2023-01-25T13:06:16;100524.94;;;2.49;100.00
39793;BME280;26080;42.264;24.536;2023-01-25T13:16:50;100486.94;;;2.39;100.00
39793;BME280;26080;42.264;24.536;2023-01-25T13:22:08;100512.88;;;2.54;100.00
39793;BME280;26080;42.264;24.536;2023-01-25T13:27:28;100512.81;;;2.42;100.00
39793;BME280;26080;42.264;24.536;2023-01-25T13:30:37;100511.03;;;2.32;100.00
39793;BME280;26080;42.264;24.536;2023-01-25T13:35:32;100509.34;;;2.40;100.00
39793;BME280;26080;42.264;24.536;2023-01-25T13:38:05;100464.47;;;2.23;100.00
39793;BME280;26080;42.264;24.536;2023-01-25T13:41:07;100497.34;;;2.51;100.00
39793;BME280;26080;42.264;24.536;2023-01-25T13:43:39;100499.00;;;2.40;100.00
39793;BME280;26080;42.264;24.536;2023-01-25T13:46:07;100509.41;;;2.52;100.00
39793;BME280;26080;42.264;24.536;2023-01-25T13:48:35;100456.72;;;2.27;100.00
39793;BME280;26080;42.264;24.536;2023-01-25T13:51:11;100498.25;;;2.61;100.00
39793;BME280;26080;42.264;24.536;2023-01-25T13:53:38;100514.66;;;2.64;100.00
39793;BME280;26080;42.264;24.536;2023-01-25T13:56:05;100500.72;;;2.35;100.00
39793;BME280;26080;42.264;24.536;2023-01-25T13:58:48;100517.97;;;2.42;100.00
39793;BME280;26080;42.264;24.536;2023-01-25T14:01:15;100500.72;;;2.35;100.00
39793;BME280;26080;42.264;24.536;2023-01-25T14:03:48;100520.50;;;2.33;100.00
39793;BME280;26080;42.264;24.536;2023-01-25T14:06:19;100512.75;;;2.30;100.00
39793;BME280;26080;42.264;24.536;2023-01-25T14:08:47;100492.06;;;2.28;100.00
39793;BME280;26080;42.264;24.536;2023-01-25T14:11:20;100512.00;;;2.51;100.00
39793;BME280;26080;42.264;24.536;2023-01-25T14:14:00;100511.94;;;2.43;100.00
39793;BME280;26080;42.264;24.536;2023-01-25T14:16:26;100486.97;;;2.45;100.00
39793;BME280;26080;42.264;24.536;2023-01-25T14:18:55;100496.47;;;2.51;100.00
39793;BME280;26080;42.264;24.536;2023-01-25T14:21:21;100506.03;;;2.61;100.00
39793;BME280;26080;42.264;24.536;2023-01-25T14:23:47;100505.97;;;2.52;100.00
39793;BME280;26080;42.264;24.536;2023-01-25T14:28:46;100508.50;;;2.38;100.00
39793;BME280;26080;42.264;24.536;2023-01-25T14:31:19;100502.53;;;2.51;100.00
39793;BME280;26080;42.264;24.536;2023-01-25T14:33:45;100487.81;;;2.36;100.00
39793;BME280;26080;42.264;24.536;2023-01-25T14:36:13;100504.13;;;2.28;100.00
39793;BME280;26080;42.264;24.536;2023-01-25T14:38:43;100516.16;;;2.20;100.00
39793;BME280;26080;42.264;24.536;2023-01-25T14:41:31;100507.50;;;2.15;100.00